Date,TemperatureHighF,TemperatureAvgF,TemperatureLowF,DewpointHighF,DewpointAvgF,DewpointLowF,HumidityHigh,HumidityAvg,HumidityLow,PressureMaxIn,PressureMinIn,WindSpeedMaxMPH,WindSpeedAvgMPH,GustSpeedMaxMPH,PrecipitationSumIn
2013-1-8,45,39,13,28,27,6,75,61,47,30.62,29.96,7,2,12,0.15
2013-1-9,43,37,28,26,23,17,66,56,49,30.71,30.21,14,5,21,0.00
2013-1-10,43,39,36,31,29,27,81,67,56,30.51,30.24,8,3,12,0.06
2013-1-11,50,46,41,46,42,38,91,88,80,29.90,29.69,9,2,16,0.00
2013-1-12,50,38,25,45,29,15,84,70,57,30.14,29.71,13,4,22,0.00
2013-1-13,25,18,13,18,7,0,75,61,53,30.48,30.08,14,5,21,32.02
2013-1-14,27,15,8,7,2,-3,67,54,39,30.76,30.48,11,3,15,0.00
2013-1-15,36,25,10,16,10,2,74,53,35,30.73,30.30,8,1,11,0.00
2013-1-16,34,31,24,26,20,7,77,64,48,30.33,29.94,14,4,21,0.00
2013-1-17,28,20,13,12,2,-5,64,45,27,30.67,30.22,11,4,17,0.00
2013-1-18,44,29,10,30,17,1,71,62,49,30.71,29.91,11,2,18,0.00
2013-1-19,44,36,16,33,24,-2,73,61,28,30.10,29.72,23,6,34,0.00
2013-1-20,16,12,8,-2,-8,-9,45,39,32,30.53,30.10,13,4,19,0.00
2013-1-21,10,3,-4,-7,-16,-20,49,38,31,30.62,30.31,16,7,24,0.00
2013-1-22,9,0,-8,-11,-16,-23,47,42,32,30.76,30.46,13,4,16,0.00
2013-1-23,19,11,-2,8,-2,-15,70,54,42,30.70,30.10,11,3,22,0.00
2013-1-24,18,10,-1,3,-7,-15,53,45,35,30.99,30.43,6,2,12,0.00
2013-1-25,24,19,15,12,7,-1,66,59,43,30.63,30.29,9,3,13,0.00
2013-1-26,30,22,16,9,5,0,58,46,31,30.60,30.39,5,1,8,0.00
2013-1-27,33,28,23,29,21,8,86,74,52,30.62,29.99,8,2,14,0.00
2013-1-28,43,36,31,33,29,25,86,78,65,30.10,29.89,7,1,9,0.00
2013-1-29,59,52,41,57,50,40,94,92,86,29.74,29.59,5,2,11,1.52
2013-1-30,29,22,16,24,16,7,84,77,67,29.80,29.48,0,0,0,34.16
2013-1-31,18,11,5,1,-3,-7,65,53,42,30.31,29.94,0,0,97,29.95
2013-2-1,10,5,1,-2,-9,-15,65,51,31,30.60,30.44,0,0,0,0.00
2013-2-2,18,8,-2,0,-5,-12,66,54,35,30.48,30.30,0,0,0,0.00
2013-2-3,18,14,9,4,0,-4,65,53,44,30.36,30.24,0,0,0,0.00
2013-2-4,21,13,4,8,1,-9,72,59,43,30.37,29.92,0,0,0,0.00
2013-2-5,27,18,-3,19,9,-11,76,66,58,30.31,30.02,0,0,0,0.00
2013-2-6,44,23,-2,26,11,-11,75,60,32,30.54,30.23,4,1,11,0.09
2013-2-7,36,32,21,30,26,16,87,80,74,30.29,29.96,3,0,6,0.06
2013-2-8,27,18,3,16,10,-5,82,71,62,30.77,30.26,0,0,0,0.00
2013-2-9,32,18,1,21,10,-8,76,69,63,30.80,30.33,0,0,0,0.00
2013-2-10,44,34,17,41,30,10,93,84,74,30.40,29.53,9,2,18,0.48
2013-2-11,40,31,26,33,23,16,79,71,62,30.12,29.55,17,8,30,0.02
2013-2-12,33,24,19,18,14,11,79,66,50,30.30,29.91,11,4,17,0.00
2013-2-13,48,32,19,28,22,13,85,69,44,29.97,29.61,8,1,13,0.00
2013-2-14,35,33,28,31,26,18,84,74,64,30.16,29.74,17,4,21,0.05
2013-2-15,32,21,12,22,5,-2,78,50,33,30.47,30.16,9,4,14,0.00
2013-2-16,22,11,0,0,-6,-12,58,45,27,30.59,30.18,11,3,17,0.00
2013-2-17,36,17,-2,12,-2,-12,68,45,22,30.59,30.19,6,1,10,0.00
2013-2-18,53,36,24,38,25,8,90,64,44,30.23,29.55,9,2,17,0.32
2013-2-19,29,14,6,25,4,-6,87,64,52,30.51,29.65,0,0,0,0.00
2013-2-20,25,12,4,6,-1,-7,67,53,37,30.79,30.45,0,0,0,0.00
2013-2-21,26,19,8,19,10,-2,76,68,59,30.85,30.37,6,1,12,0.00
2013-2-22,35,28,24,29,22,17,85,79,72,30.39,29.97,5,2,12,0.00
2013-2-23,34,26,18,20,16,8,76,66,53,30.23,29.96,8,2,13,0.04
2013-2-24,51,27,16,24,14,8,77,61,32,30.47,30.14,5,2,8,0.11
2013-2-25,51,30,12,33,17,5,78,61,32,30.54,29.99,4,1,6,0.00
2013-2-26,34,32,28,28,25,21,87,75,60,30.22,29.66,14,5,22,0.00
2013-2-27,35,31,28,30,27,6,88,84,77,30.34,29.75,9,2,14,35.43
2013-2-28,35,31,24,28,23,14,85,73,62,30.33,29.96,9,2,16,0.02
2013-3-1,26,23,19,15,13,6,69,65,57,30.57,30.32,9,3,14,0.00
2013-3-2,33,19,3,13,5,-5,68,55,38,30.59,30.19,8,2,12,0.00
2013-3-3,41,15,-4,13,-3,-12,67,46,23,30.61,30.17,8,1,11,0.02
2013-3-4,42,23,1,22,11,-9,73,60,41,30.61,30.02,8,2,12,0.00
2013-3-5,32,29,25,26,22,18,83,74,63,30.29,29.89,9,3,19,14.32
2013-3-6,40,30,26,26,21,12,78,68,42,30.46,30.26,10,3,14,0.07
2013-3-7,50,29,14,19,13,6,75,54,26,30.66,30.28,5,2,8,0.00
2013-3-8,53,30,10,27,17,2,79,61,33,30.79,30.36,4,1,8,0.00
2013-3-9,44,36,29,32,27,20,83,70,56,30.55,29.82,6,2,10,0.16
2013-3-10,45,40,35,42,36,31,92,88,82,30.00,29.61,8,2,12,0.91
2013-3-11,38,34,31,36,30,25,92,86,81,29.84,29.51,10,2,14,0.07
2013-3-12,38,30,26,25,19,13,79,64,43,30.19,29.88,11,4,17,0.00
2013-3-13,34,26,18,15,7,1,68,46,26,30.58,30.06,12,5,18,0.02
2013-3-14,43,34,22,24,20,4,85,58,29,30.57,30.05,6,2,9,0.00
2013-3-15,40,32,27,31,25,22,82,76,65,30.21,30.07,4,2,8,0.01
2013-3-16,37,30,27,18,15,12,57,53,45,30.33,29.99,9,4,14,0.00
2013-3-17,35,29,26,15,13,11,57,50,40,30.48,30.18,6,3,12,0.00
2013-3-18,39,32,18,31,24,4,83,72,54,29.91,29.51,7,1,10,0.18
2013-3-19,22,20,16,6,4,1,59,51,44,30.26,29.83,13,4,17,0.00
2013-3-20,24,17,11,2,-2,-7,47,41,32,30.30,29.95,14,6,20,0.00
2013-3-21,35,19,8,12,1,-7,57,46,34,30.39,29.98,11,4,17,0.00
2013-3-22,42,24,9,14,6,-2,66,48,27,30.39,29.97,8,2,10,0.00
2013-3-23,53,30,14,21,14,6,77,55,24,30.39,30.03,7,1,9,0.00
2013-3-24,39,32,29,28,22,17,78,66,58,30.28,29.91,12,4,19,0.05
2013-3-25,38,31,27,25,20,14,70,63,51,30.26,29.93,11,3,20,0.00
2013-3-26,32,32,32,22,21,21,66,65,63,30.32,30.24,4,1,6,0.00
2013-3-27,50,38,26,24,18,13,63,45,28,30.51,30.15,9,3,15,0.00
2013-3-28,52,36,22,23,17,12,73,49,27,30.61,30.23,9,2,12,0.00
2013-3-29,56,37,21,31,18,14,80,50,24,30.61,30.22,7,1,10,0.00
2013-3-30,59,43,26,40,28,14,85,56,35,30.46,29.87,9,1,16,0.01
2013-3-31,52,43,37,40,37,32,88,80,59,29.90,29.66,9,4,16,0.00
2013-5-19,72,70,55,64,60,40,75,71,56,30.04,29.44,5,2,10,0.90
2013-5-20,90,76,65,65,62,57,90,64,37,29.61,29.46,11,2,17,0.04
2013-5-21,85,71,59,67,62,57,98,75,44,29.64,29.42,9,2,21,0.05
2013-5-22,72,61,55,67,60,54,99,96,82,29.71,29.39,4,1,8,0.66
2013-5-23,65,51,39,54,46,37,99,85,49,30.49,29.71,10,2,15,0.11
2013-5-24,70,51,35,45,37,31,97,63,33,30.62,30.35,4,1,10,0.00
2013-5-25,66,54,42,44,37,32,78,56,35,30.54,30.36,4,1,8,46.38
2013-5-26,72,55,40,48,42,36,85,63,35,30.48,30.15,5,1,11,0.00
2013-5-27,55,52,50,54,49,41,99,90,66,30.22,29.88,8,2,15,0.12
2013-5-28,76,63,50,70,60,50,99,92,78,29.94,29.55,4,1,9,0.79
2013-5-29,89,70,63,69,67,62,99,90,50,29.87,29.63,4,2,9,0.04
2013-5-30,86,77,63,72,68,62,99,76,61,29.82,29.55,10,3,22,0.32
2013-5-31,68,66,62,66,64,61,99,92,88,29.79,29.71,7,2,12,0.09
2013-6-1,68,61,41,65,57,32,97,79,38,29.79,29.55,4,1,8,48.09
2013-6-2,62,60,58,58,52,45,90,77,61,30.00,29.58,9,5,13,0.00
2013-6-3,59,59,59,46,46,46,63,63,63,29.92,29.92,2,2,3,0.00
2013-6-20,78,72,68,61,59,57,68,64,55,30.03,29.81,0,0,0,0.00
2013-6-21,80,71,66,70,66,57,99,83,67,30.11,29.79,4,0,12,0.84
2013-6-22,84,73,66,74,69,65,99,87,68,30.06,29.80,4,0,8,0.33
2013-6-23,92,77,64,76,69,63,99,77,55,29.95,29.73,5,0,14,0.02
2013-6-24,87,74,67,72,69,66,99,84,56,29.95,29.64,5,0,9,0.11
2013-6-25,97,74,65,76,68,10,99,87,4,29.88,29.63,8,0,38,4.61
2013-6-26,86,74,67,73,69,66,99,86,61,29.78,29.65,0,0,0,0.40
2013-6-27,90,76,65,74,68,62,99,81,51,29.75,29.55,6,0,9,0.02
2013-6-28,82,71,63,66,63,61,99,79,53,29.69,29.46,9,1,14,0.37
2013-6-29,79,67,63,64,60,56,97,81,49,29.80,29.53,6,0,12,0.21
2013-6-30,84,70,59,62,53,45,77,57,32,29.96,29.69,6,1,13,0.00
2013-7-1,85,69,54,57,52,46,89,57,31,30.10,29.92,4,0,9,5.78
2013-7-2,81,65,54,58,52,47,94,64,37,30.16,29.92,4,0,9,0.00
2013-7-3,74,65,59,65,60,52,95,85,64,30.08,29.96,0,0,1,0.14
2013-7-4,90,75,60,67,62,58,98,70,35,30.09,29.87,0,0,0,5.92
2013-7-5,92,76,63,69,63,59,90,66,42,30.05,29.86,4,0,8,0.00
2013-7-6,93,77,62,69,64,59,95,68,38,30.05,29.82,4,0,7,0.00
2013-7-7,95,79,67,74,70,65,96,75,49,29.98,29.78,4,0,9,0.00
2013-7-8,92,79,71,76,72,69,97,80,57,29.94,29.80,4,0,9,0.15
2013-7-9,90,76,68,78,71,67,95,86,64,29.95,29.69,2,0,10,0.14
2013-7-10,82,74,60,74,63,-100,97,72,1,29.94,29.72,0,0,2,6.32
2013-7-11,89,70,55,66,57,52,98,68,36,30.09,29.88,0,0,0,0.00
2013-7-12,92,72,53,66,56,35,98,65,21,30.17,29.82,0,0,0,0.14
2013-7-13,88,76,61,65,60,55,90,62,39,30.08,29.89,0,0,0,0.04
2013-7-14,90,80,62,72,67,60,96,67,50,30.17,30.00,0,0,0,0.00
2013-7-15,96,77,68,76,71,66,96,83,49,30.21,30.01,0,0,0,0.13
2013-7-16,99,85,72,78,74,56,95,72,47,30.20,30.05,0,0,114,6.63
2013-7-17,98,95,92,78,76,73,58,53,47,30.08,30.04,0,0,0,0.00
2013-7-18,99,89,72,78,73,70,96,62,45,30.14,29.79,6,1,14,0.02
2013-7-19,95,84,73,76,71,63,94,68,50,29.83,29.61,13,1,18,6.90
2013-7-20,93,73,61,68,63,57,93,71,42,29.91,29.66,8,0,11,0.06
2013-7-21,87,70,61,70,62,56,97,78,51,29.94,29.61,1,0,7,0.80
2013-7-22,91,82,64,73,69,63,97,66,48,29.71,29.42,0,0,1,0.16
2013-7-23,78,68,57,65,58,53,93,71,49,29.95,29.57,5,0,8,0.02
2013-7-24,83,71,55,58,54,50,86,56,38,30.03,29.68,2,0,5,0.01
2013-7-25,86,69,51,65,58,49,96,71,47,30.11,29.77,0,0,0,0.00
2013-7-26,74,65,58,70,63,57,97,92,82,29.88,29.68,2,0,11,0.53
2013-7-27,62,57,52,58,51,47,98,79,61,29.89,29.68,8,2,13,0.02
2013-7-28,72,60,52,56,52,50,95,77,54,29.90,29.80,8,3,14,0.03
2013-7-29,82,65,53,61,56,50,96,74,46,30.13,29.90,4,1,8,0.09
2013-7-30,82,67,58,64,61,56,95,81,52,30.15,29.86,4,1,9,0.28
2013-7-31,86,68,59,72,64,58,98,89,54,29.96,29.72,6,0,11,0.28
2013-8-1,82,68,57,65,58,54,98,74,41,29.90,29.63,8,2,12,0.01
2013-8-2,84,71,58,69,61,55,96,73,47,29.91,29.67,7,2,11,0.24
2013-8-3,82,68,52,66,55,51,96,66,40,30.15,29.85,8,1,13,0.00
2013-8-4,83,67,54,65,56,50,96,72,35,30.24,29.94,5,1,7,0.00
2013-8-5,81,66,59,66,59,54,91,79,57,30.03,29.65,4,1,11,0.00
2013-8-6,90,75,63,72,67,61,96,77,52,29.74,29.45,7,1,9,0.03
2013-8-7,87,75,63,73,66,60,95,76,50,29.92,29.43,8,2,12,0.10
2013-8-8,85,70,58,66,57,50,96,67,36,29.97,29.55,5,1,11,0.00
2013-8-9,82,65,54,67,56,48,93,75,53,29.99,29.58,7,1,9,0.12
2013-8-14,80,69,58,64,53,49,79,59,38,30.12,30.03,4,1,7,0.92
2013-8-15,86,74,57,60,55,48,91,57,32,30.05,29.63,5,1,10,0.00
2013-8-16,66,59,56,55,54,53,91,82,68,30.12,30.03,0,0,0,0.16
2013-8-17,89,83,76,61,59,55,55,44,36,29.96,29.70,4,1,6,0.00
2013-8-18,88,84,78,63,61,60,56,46,41,29.94,29.89,5,1,6,0.00
2013-8-19,89,77,63,67,63,60,90,64,44,29.95,29.60,8,1,11,0.00
2013-8-20,93,77,62,70,65,60,95,70,43,30.02,29.62,8,1,11,0.00
2013-8-21,94,80,68,72,67,63,89,67,46,29.96,29.70,7,2,14,0.09
2013-8-22,86,72,61,75,67,57,96,84,65,30.02,29.79,13,1,20,1.48
2013-8-23,88,71,56,68,59,54,97,71,38,30.17,29.92,4,0,9,0.18
2013-8-24,90,73,56,69,61,55,96,70,43,30.26,29.97,4,1,9,0.00
2013-8-25,94,80,68,72,64,57,81,62,43,30.14,29.81,9,2,15,0.04
2013-8-26,96,80,68,76,70,64,91,71,52,30.03,29.74,6,1,12,0.09
2013-8-27,84,82,81,73,72,72,76,72,69,29.79,29.68,3,0,5,0.00
2013-8-28,81,77,70,73,70,68,92,80,74,29.87,29.71,4,1,8,13.14
2013-8-29,79,79,79,70,70,70,74,74,74,29.86,29.86,2,2,3,0.00
2013-8-31,86,80,78,70,67,65,69,64,59,29.72,29.63,4,1,7,0.00
2013-9-2,81,66,54,68,54,49,85,67,52,29.93,29.78,6,1,9,14.34
2013-9-3,78,59,48,60,52,47,95,81,46,30.11,29.87,6,1,8,0.00
2013-9-4,86,74,54,65,61,51,93,67,45,30.03,29.78,7,2,12,0.00
2013-9-5,79,66,51,62,54,47,88,67,43,30.18,29.85,5,1,13,0.00
2013-9-6,89,68,50,68,59,47,94,74,45,30.26,29.78,4,1,8,0.14
2013-9-7,85,75,68,72,67,63,83,76,66,29.81,29.74,4,1,5,0.27
2013-9-8,76,70,66,65,62,60,85,78,65,29.96,29.85,4,1,10,0.00
2013-9-9,94,80,67,76,70,62,90,73,53,29.87,29.59,6,1,11,0.00
2013-9-10,98,84,72,71,66,62,75,57,39,29.82,29.65,9,2,16,0.00
2013-9-11,88,74,66,70,65,62,90,75,53,29.97,29.80,7,1,12,0.01
2013-9-12,83,70,57,71,57,45,87,64,43,30.06,29.60,9,2,15,0.00
2013-9-13,70,57,46,47,44,41,88,65,37,30.26,30.01,6,1,11,0.00
2013-9-14,80,60,42,68,47,41,96,67,38,30.33,29.91,6,1,10,14.90
2013-9-15,64,57,53,58,52,46,93,84,60,30.28,29.97,6,1,11,0.45
2013-9-16,72,54,42,52,45,39,93,73,44,30.52,30.27,5,2,10,0.12
2013-9-17,75,60,42,58,50,40,95,74,49,30.50,30.07,5,1,9,0.05
2013-9-18,82,69,59,67,62,54,88,78,59,30.07,29.77,5,1,10,0.20
2013-9-19,72,69,68,69,66,64,92,88,80,29.83,29.77,6,1,10,0.13